sensor_id;sensor_type;location;lat;lon;timestamp;pressure;altitude;pressure_sealevel;temperature;humidity
23172;BME280;11754;42.664;23.594;2023-08-31T00:02:06;94866.19;;;20.00;59.72
23172;BME280;11754;42.664;23.594;2023-08-31T00:04:31;94868.78;;;19.95;59.70
23172;BME280;11754;42.664;23.594;2023-08-31T00:06:57;94862.84;;;19.92;59.58
23172;BME280;11754;42.664;23.594;2023-08-31T00:09:25;94869.81;;;19.93;59.58
23172;BME280;11754;42.664;23.594;2023-08-31T00:11:51;94876.84;;;19.83;59.69
23172;BME280;11754;42.664;23.594;2023-08-31T00:14:16;94868.47;;;19.79;59.55
23172;BME280;11754;42.664;23.594;2023-08-31T00:16:43;94857.00;;;19.67;59.29
23172;BME280;11754;42.664;23.594;2023-08-31T00:19:11;94867.78;;;19.72;59.72
23172;BME280;11754;42.664;23.594;2023-08-31T00:21:36;94860.84;;;19.71;59.23
23172;BME280;11754;42.664;23.594;2023-08-31T00:24:02;94851.53;;;19.62;58.92
23172;BME280;11754;42.664;23.594;2023-08-31T00:26:27;94852.00;;;19.59;58.59
23172;BME280;11754;42.664;23.594;2023-08-31T00:28:54;94852.34;;;19.51;58.98
23172;BME280;11754;42.664;23.594;2023-08-31T00:31:19;94872.72;;;19.52;59.10
23172;BME280;11754;42.664;23.594;2023-08-31T00:33:46;94874.72;;;19.44;59.27
23172;BME280;11754;42.664;23.594;2023-08-31T00:36:13;94860.53;;;19.32;59.71
23172;BME280;11754;42.664;23.594;2023-08-31T00:38:38;94880.75;;;19.40;59.56
23172;BME280;11754;42.664;23.594;2023-08-31T00:41:03;94878.44;;;19.32;59.44
23172;BME280;11754;42.664;23.594;2023-08-31T00:43:29;94890.91;;;19.26;59.93
23172;BME280;11754;42.664;23.594;2023-08-31T00:45:56;94887.06;;;19.22;59.97
23172;BME280;11754;42.664;23.594;2023-08-31T00:48:23;94883.38;;;19.11;60.57
23172;BME280;11754;42.664;23.594;2023-08-31T00:50:48;94883.50;;;19.05;60.66
23172;BME280;11754;42.664;23.594;2023-08-31T00:53:15;94886.50;;;18.96;60.73
23172;BME280;11754;42.664;23.594;2023-08-31T00:55:41;94896.72;;;18.76;61.61
23172;BME280;11754;42.664;23.594;2023-08-31T00:58:09;94889.84;;;18.68;61.54
23172;BME280;11754;42.664;23.594;2023-08-31T01:01:01;94902.25;;;18.63;62.25
23172;BME280;11754;42.664;23.594;2023-08-31T01:09:01;94898.97;;;18.61;62.46
23172;BME280;11754;42.664;23.594;2023-08-31T01:12:05;94901.09;;;18.59;62.81
23172;BME280;11754;42.664;23.594;2023-08-31T01:17:14;94896.09;;;18.62;62.90
23172;BME280;11754;42.664;23.594;2023-08-31T01:19:49;94903.88;;;18.64;63.13
23172;BME280;11754;42.664;23.594;2023-08-31T01:22:28;94901.19;;;18.64;63.11
23172;BME280;11754;42.664;23.594;2023-08-31T01:24:54;94897.00;;;18.68;63.13
23172;BME280;11754;42.664;23.594;2023-08-31T01:27:20;94900.91;;;18.72;63.41
23172;BME280;11754;42.664;23.594;2023-08-31T01:29:46;94893.47;;;18.74;63.42
23172;BME280;11754;42.664;23.594;2023-08-31T01:32:11;94885.16;;;18.64;63.53
23172;BME280;11754;42.664;23.594;2023-08-31T01:34:37;94898.06;;;18.67;63.89
23172;BME280;11754;42.664;23.594;2023-08-31T01:37:13;94900.16;;;18.65;63.94
23172;BME280;11754;42.664;23.594;2023-08-31T01:39:46;94896.44;;;18.66;63.69
23172;BME280;11754;42.664;23.594;2023-08-31T01:42:16;94910.53;;;18.73;63.85
23172;BME280;11754;42.664;23.594;2023-08-31T01:44:42;94903.69;;;18.77;63.52
23172;BME280;11754;42.664;23.594;2023-08-31T01:47:10;94901.72;;;18.72;62.59
23172;BME280;11754;42.664;23.594;2023-08-31T01:49:39;94896.19;;;18.56;62.21
23172;BME280;11754;42.664;23.594;2023-08-31T01:52:05;94908.28;;;18.46;62.80
23172;BME280;11754;42.664;23.594;2023-08-31T01:54:31;94913.19;;;18.31;63.21
23172;BME280;11754;42.664;23.594;2023-08-31T01:56:57;94909.81;;;18.24;63.47
23172;BME280;11754;42.664;23.594;2023-08-31T01:59:23;94915.88;;;18.31;63.30
23172;BME280;11754;42.664;23.594;2023-08-31T02:01:48;94914.69;;;18.27;63.11
23172;BME280;11754;42.664;23.594;2023-08-31T02:04:13;94921.41;;;18.18;63.80
23172;BME280;11754;42.664;23.594;2023-08-31T02:06:39;94919.03;;;18.10;63.87
23172;BME280;11754;42.664;23.594;2023-08-31T02:09:04;94910.19;;;17.97;64.42
23172;BME280;11754;42.664;23.594;2023-08-31T02:11:31;94924.13;;;17.99;64.81
23172;BME280;11754;42.664;23.594;2023-08-31T02:13:57;94924.56;;;17.96;65.27
23172;BME280;11754;42.664;23.594;2023-08-31T02:16:23;94926.66;;;17.94;65.57
23172;BME280;11754;42.664;23.594;2023-08-31T02:18:48;94920.94;;;17.91;65.61
23172;BME280;11754;42.664;23.594;2023-08-31T02:21:13;94911.69;;;17.75;65.84
23172;BME280;11754;42.664;23.594;2023-08-31T02:23:39;94913.34;;;17.76;65.93
23172;BME280;11754;42.664;23.594;2023-08-31T02:26:04;94922.69;;;17.85;66.09
23172;BME280;11754;42.664;23.594;2023-08-31T02:28:30;94922.19;;;17.88;65.90
23172;BME280;11754;42.664;23.594;2023-08-31T02:31:00;94919.84;;;17.80;66.12
23172;BME280;11754;42.664;23.594;2023-08-31T02:33:26;94922.53;;;17.80;66.04
23172;BME280;11754;42.664;23.594;2023-08-31T02:35:52;94936.56;;;17.69;66.71
23172;BME280;11754;42.664;23.594;2023-08-31T02:38:17;94899.25;;;17.50;66.59
23172;BME280;11754;42.664;23.594;2023-08-31T02:40:46;94931.13;;;17.64;67.04
23172;BME280;11754;42.664;23.594;2023-08-31T02:43:11;94935.41;;;17.65;66.82
23172;BME280;11754;42.664;23.594;2023-08-31T02:45:36;94936.88;;;17.61;67.00
23172;BME280;11754;42.664;23.594;2023-08-31T02:48:02;94931.69;;;17.47;67.32
23172;BME280;11754;42.664;23.594;2023-08-31T02:50:28;94938.38;;;17.38;68.05
23172;BME280;11754;42.664;23.594;2023-08-31T02:52:54;94931.91;;;17.27;68.38
23172;BME280;11754;42.664;23.594;2023-08-31T02:55:19;94937.09;;;17.41;68.12
23172;BME280;11754;42.664;23.594;2023-08-31T02:57:46;94936.88;;;17.42;67.77
23172;BME280;11754;42.664;23.594;2023-08-31T03:00:12;94925.91;;;17.32;67.55
23172;BME280;11754;42.664;23.594;2023-08-31T03:02:38;94950.78;;;17.44;67.14
23172;BME280;11754;42.664;23.594;2023-08-31T03:05:04;94945.31;;;17.39;67.44
23172;BME280;11754;42.664;23.594;2023-08-31T03:07:30;94943.97;;;17.30;67.77
23172;BME280;11754;42.664;23.594;2023-08-31T03:09:55;94956.09;;;17.26;67.60
23172;BME280;11754;42.664;23.594;2023-08-31T03:12:20;94961.88;;;17.23;67.23
23172;BME280;11754;42.664;23.594;2023-08-31T03:14:45;94957.72;;;17.27;67.19
23172;BME280;11754;42.664;23.594;2023-08-31T03:17:11;94947.53;;;17.24;66.71
23172;BME280;11754;42.664;23.594;2023-08-31T03:19:36;94959.66;;;17.20;67.09
23172;BME280;11754;42.664;23.594;2023-08-31T03:22:02;94960.31;;;17.15;67.27
23172;BME280;11754;42.664;23.594;2023-08-31T03:24:27;94959.94;;;17.12;67.84
23172;BME280;11754;42.664;23.594;2023-08-31T03:26:53;94969.78;;;17.11;67.85
23172;BME280;11754;42.664;23.594;2023-08-31T03:29:18;94970.00;;;17.10;68.10
23172;BME280;11754;42.664;23.594;2023-08-31T03:31:43;94968.22;;;17.03;68.63
23172;BME280;11754;42.664;23.594;2023-08-31T03:34:09;94971.91;;;17.02;68.57
23172;BME280;11754;42.664;23.594;2023-08-31T03:36:34;94985.38;;;17.08;68.37
23172;BME280;11754;42.664;23.594;2023-08-31T03:38:59;94986.69;;;16.98;68.80
23172;BME280;11754;42.664;23.594;2023-08-31T03:41:25;94969.38;;;16.89;68.57
23172;BME280;11754;42.664;23.594;2023-08-31T03:43:50;94976.88;;;16.99;68.39
23172;BME280;11754;42.664;23.594;2023-08-31T03:46:15;94976.03;;;16.98;68.50
23172;BME280;11754;42.664;23.594;2023-08-31T03:48:41;94969.94;;;16.91;68.56
23172;BME280;11754;42.664;23.594;2023-08-31T03:51:06;94984.72;;;16.87;68.75
23172;BME280;11754;42.664;23.594;2023-08-31T03:53:31;94985.63;;;16.81;69.20
23172;BME280;11754;42.664;23.594;2023-08-31T03:55:57;94983.97;;;16.80;69.21
23172;BME280;11754;42.664;23.594;2023-08-31T03:58:22;95002.38;;;16.88;68.93
23172;BME280;11754;42.664;23.594;2023-08-31T04:00:51;94984.34;;;16.84;68.75
23172;BME280;11754;42.664;23.594;2023-08-31T04:03:16;95001.69;;;16.93;68.73
23172;BME280;11754;42.664;23.594;2023-08-31T04:05:41;95011.94;;;16.96;68.53
23172;BME280;11754;42.664;23.594;2023-08-31T04:08:07;95018.66;;;16.98;68.53
23172;BME280;11754;42.664;23.594;2023-08-31T04:10:32;95017.84;;;16.98;68.62
23172;BME280;11754;42.664;23.594;2023-08-31T04:12:58;95012.56;;;16.91;68.55
23172;BME280;11754;42.664;23.594;2023-08-31T04:15:24;95023.56;;;17.01;68.42
23172;BME280;11754;42.664;23.594;2023-08-31T04:17:49;95021.94;;;17.00;68.18
23172;BME280;11754;42.664;23.594;2023-08-31T04:20:15;95039.06;;;17.11;67.79
23172;BME280;11754;42.664;23.594;2023-08-31T04:22:40;95044.16;;;17.13;67.26
23172;BME280;11754;42.664;23.594;2023-08-31T04:25:06;95028.88;;;17.01;67.20
23172;BME280;11754;42.664;23.594;2023-08-31T04:27:31;95038.69;;;17.08;67.46
23172;BME280;11754;42.664;23.594;2023-08-31T04:30:00;95052.16;;;17.13;67.46
23172;BME280;11754;42.664;23.594;2023-08-31T04:32:25;95052.50;;;17.23;66.76
23172;BME280;11754;42.664;23.594;2023-08-31T04:34:51;95046.34;;;17.22;66.29
23172;BME280;11754;42.664;23.594;2023-08-31T04:37:17;95051.78;;;17.34;66.30
23172;BME280;11754;42.664;23.594;2023-08-31T04:39:43;95053.72;;;17.45;65.70
23172;BME280;11754;42.664;23.594;2023-08-31T04:42:08;95054.22;;;17.61;65.41
23172;BME280;11754;42.664;23.594;2023-08-31T04:44:33;95059.25;;;17.69;65.22
23172;BME280;11754;42.664;23.594;2023-08-31T04:46:59;95061.88;;;17.75;65.46
23172;BME280;11754;42.664;23.594;2023-08-31T04:49:25;95061.38;;;17.85;65.31
23172;BME280;11754;42.664;23.594;2023-08-31T04:51:51;95053.09;;;17.93;65.34
23172;BME280;11754;42.664;23.594;2023-08-31T04:54:17;95057.53;;;17.99;65.03
23172;BME280;11754;42.664;23.594;2023-08-31T04:56:42;95051.28;;;18.06;64.80
23172;BME280;11754;42.664;23.594;2023-08-31T04:59:08;95035.00;;;17.95;65.04
23172;BME280;11754;42.664;23.594;2023-08-31T05:01:33;95054.13;;;18.11;64.91
23172;BME280;11754;42.664;23.594;2023-08-31T05:03:59;95057.38;;;18.13;64.77
23172;BME280;11754;42.664;23.594;2023-08-31T05:06:24;95058.91;;;18.20;64.44
23172;BME280;11754;42.664;23.594;2023-08-31T05:08:49;95057.81;;;18.28;64.60
23172;BME280;11754;42.664;23.594;2023-08-31T05:11:15;95043.19;;;18.31;63.62
23172;BME280;11754;42.664;23.594;2023-08-31T05:13:40;95034.88;;;18.39;63.51
23172;BME280;11754;42.664;23.594;2023-08-31T05:16:10;95051.53;;;18.53;63.19
23172;BME280;11754;42.664;23.594;2023-08-31T05:18:37;95054.94;;;18.60;62.96
23172;BME280;11754;42.664;23.594;2023-08-31T05:21:03;95062.84;;;18.66;62.63
23172;BME280;11754;42.664;23.594;2023-08-31T05:23:28;95053.75;;;18.74;62.71
23172;BME280;11754;42.664;23.594;2023-08-31T05:25:54;95053.41;;;18.82;62.60
23172;BME280;11754;42.664;23.594;2023-08-31T05:28:22;95059.44;;;18.78;62.83
23172;BME280;11754;42.664;23.594;2023-08-31T05:30:51;95061.59;;;18.99;62.45
23172;BME280;11754;42.664;23.594;2023-08-31T05:33:20;95060.69;;;19.05;62.50
23172;BME280;11754;42.664;23.594;2023-08-31T05:35:47;95067.69;;;19.18;62.57
23172;BME280;11754;42.664;23.594;2023-08-31T05:38:13;95066.66;;;19.19;62.58
23172;BME280;11754;42.664;23.594;2023-08-31T05:40:38;95061.06;;;19.32;62.38
23172;BME280;11754;42.664;23.594;2023-08-31T05:43:04;95049.72;;;19.37;62.39
23172;BME280;11754;42.664;23.594;2023-08-31T05:45:32;95060.06;;;19.57;62.08
23172;BME280;11754;42.664;23.594;2023-08-31T05:47:58;95054.84;;;19.62;62.05
23172;BME280;11754;42.664;23.594;2023-08-31T05:50:23;95065.31;;;19.75;61.65
23172;BME280;11754;42.664;23.594;2023-08-31T05:52:49;95065.78;;;19.96;61.15
23172;BME280;11754;42.664;23.594;2023-08-31T05:55:14;95060.44;;;19.96;60.76
23172;BME280;11754;42.664;23.594;2023-08-31T05:57:39;95065.41;;;20.04;60.20
23172;BME280;11754;42.664;23.594;2023-08-31T06:00:06;95057.59;;;20.14;59.62
23172;BME280;11754;42.664;23.594;2023-08-31T06:02:33;95076.88;;;20.39;58.97
23172;BME280;11754;42.664;23.594;2023-08-31T06:04:58;95071.28;;;20.53;57.91
23172;BME280;11754;42.664;23.594;2023-08-31T06:07:24;95054.97;;;20.43;58.27
23172;BME280;11754;42.664;23.594;2023-08-31T06:09:49;95075.88;;;20.69;57.98
23172;BME280;11754;42.664;23.594;2023-08-31T06:12:14;95076.25;;;20.90;57.60
23172;BME280;11754;42.664;23.594;2023-08-31T06:14:40;95080.94;;;21.11;56.95
23172;BME280;11754;42.664;23.594;2023-08-31T06:17:05;95072.41;;;21.14;56.31
23172;BME280;11754;42.664;23.594;2023-08-31T06:19:31;95084.34;;;21.35;55.46
23172;BME280;11754;42.664;23.594;2023-08-31T06:21:56;95080.09;;;21.39;54.69
23172;BME280;11754;42.664;23.594;2023-08-31T06:24:21;95069.94;;;21.58;54.34
23172;BME280;11754;42.664;23.594;2023-08-31T06:26:47;95064.63;;;21.63;54.60
23172;BME280;11754;42.664;23.594;2023-08-31T06:29:12;95074.56;;;21.79;54.41
23172;BME280;11754;42.664;23.594;2023-08-31T06:31:37;95072.56;;;21.92;53.25
23172;BME280;11754;42.664;23.594;2023-08-31T06:34:03;95086.16;;;22.02;53.73
23172;BME280;11754;42.664;23.594;2023-08-31T06:36:29;95088.16;;;22.12;52.99
23172;BME280;11754;42.664;23.594;2023-08-31T06:38:55;95094.53;;;22.22;53.73
23172;BME280;11754;42.664;23.594;2023-08-31T06:41:21;95098.16;;;22.33;52.80
23172;BME280;11754;42.664;23.594;2023-08-31T06:43:46;95105.09;;;22.12;53.10
23172;BME280;11754;42.664;23.594;2023-08-31T06:46:11;95119.28;;;21.91;53.20
23172;BME280;11754;42.664;23.594;2023-08-31T06:48:37;95106.03;;;21.84;53.36
23172;BME280;11754;42.664;23.594;2023-08-31T06:51:02;95097.47;;;21.87;53.77
23172;BME280;11754;42.664;23.594;2023-08-31T06:53:29;95091.47;;;21.97;54.56
23172;BME280;11754;42.664;23.594;2023-08-31T06:55:54;95109.50;;;22.18;54.10
23172;BME280;11754;42.664;23.594;2023-08-31T06:58:20;95119.44;;;22.01;52.47
23172;BME280;11754;42.664;23.594;2023-08-31T07:00:45;95107.88;;;22.00;52.72
23172;BME280;11754;42.664;23.594;2023-08-31T07:03:12;95105.19;;;22.17;51.47
23172;BME280;11754;42.664;23.594;2023-08-31T07:05:42;95116.34;;;22.26;51.96
23172;BME280;11754;42.664;23.594;2023-08-31T07:08:07;95095.66;;;22.26;51.05
23172;BME280;11754;42.664;23.594;2023-08-31T07:10:34;95105.28;;;22.66;50.80
23172;BME280;11754;42.664;23.594;2023-08-31T07:13:02;95093.31;;;22.79;49.36
23172;BME280;11754;42.664;23.594;2023-08-31T07:15:28;95097.94;;;23.06;51.30
23172;BME280;11754;42.664;23.594;2023-08-31T07:17:54;95106.38;;;23.14;48.81
23172;BME280;11754;42.664;23.594;2023-08-31T07:20:19;95119.16;;;23.29;47.31
23172;BME280;11754;42.664;23.594;2023-08-31T07:22:45;95121.09;;;23.34;47.73
23172;BME280;11754;42.664;23.594;2023-08-31T07:25:10;95108.78;;;23.43;47.87
23172;BME280;11754;42.664;23.594;2023-08-31T07:27:37;95118.94;;;23.63;47.82
23172;BME280;11754;42.664;23.594;2023-08-31T07:30:03;95120.06;;;23.40;46.71
23172;BME280;11754;42.664;23.594;2023-08-31T07:32:29;95116.75;;;23.33;47.13
23172;BME280;11754;42.664;23.594;2023-08-31T07:34:54;95104.09;;;23.60;47.28
23172;BME280;11754;42.664;23.594;2023-08-31T07:37:20;95114.47;;;23.73;47.84
23172;BME280;11754;42.664;23.594;2023-08-31T07:39:45;95108.84;;;24.17;46.47
23172;BME280;11754;42.664;23.594;2023-08-31T07:42:11;95113.22;;;24.29;45.32
23172;BME280;11754;42.664;23.594;2023-08-31T07:44:36;95117.16;;;24.53;46.34
23172;BME280;11754;42.664;23.594;2023-08-31T07:47:01;95114.00;;;24.72;44.96
23172;BME280;11754;42.664;23.594;2023-08-31T07:49:27;95110.22;;;24.73;44.53
23172;BME280;11754;42.664;23.594;2023-08-31T07:51:53;95102.25;;;24.40;45.53
23172;BME280;11754;42.664;23.594;2023-08-31T07:54:22;95108.13;;;24.85;44.49
23172;BME280;11754;42.664;23.594;2023-08-31T07:56:48;95115.72;;;25.08;44.06
23172;BME280;11754;42.664;23.594;2023-08-31T07:59:13;95115.53;;;25.25;43.65
23172;BME280;11754;42.664;23.594;2023-08-31T08:01:39;95115.84;;;25.64;44.53
23172;BME280;11754;42.664;23.594;2023-08-31T08:04:06;95119.63;;;25.89;41.92
23172;BME280;11754;42.664;23.594;2023-08-31T08:06:31;95118.56;;;26.16;40.81
23172;BME280;11754;42.664;23.594;2023-08-31T08:08:56;95122.84;;;26.47;40.28
23172;BME280;11754;42.664;23.594;2023-08-31T08:11:22;95095.81;;;26.27;41.60
23172;BME280;11754;42.664;23.594;2023-08-31T08:13:48;95116.25;;;26.74;39.97
23172;BME280;11754;42.664;23.594;2023-08-31T08:16:13;95118.84;;;26.99;40.12
23172;BME280;11754;42.664;23.594;2023-08-31T08:18:40;95125.25;;;27.24;38.54
23172;BME280;11754;42.664;23.594;2023-08-31T08:21:05;95110.38;;;26.46;38.23
23172;BME280;11754;42.664;23.594;2023-08-31T08:23:30;95110.06;;;26.63;37.88
23172;BME280;11754;42.664;23.594;2023-08-31T08:25:56;95120.88;;;26.63;38.23
23172;BME280;11754;42.664;23.594;2023-08-31T08:28:21;95116.59;;;27.22;37.31
23172;BME280;11754;42.664;23.594;2023-08-31T08:30:46;95110.69;;;27.10;37.04
23172;BME280;11754;42.664;23.594;2023-08-31T08:33:12;95117.13;;;26.54;37.61
23172;BME280;11754;42.664;23.594;2023-08-31T08:35:38;95115.31;;;26.13;39.25
23172;BME280;11754;42.664;23.594;2023-08-31T08:38:04;95107.19;;;26.13;38.96
23172;BME280;11754;42.664;23.594;2023-08-31T08:40:34;95111.72;;;26.39;39.62
23172;BME280;11754;42.664;23.594;2023-08-31T08:43:05;95108.03;;;26.99;38.60
23172;BME280;11754;42.664;23.594;2023-08-31T08:45:35;95111.72;;;27.63;36.64
23172;BME280;11754;42.664;23.594;2023-08-31T08:48:05;95113.63;;;28.26;35.79
23172;BME280;11754;42.664;23.594;2023-08-31T08:50:31;95106.63;;;28.97;34.57
23172;BME280;11754;42.664;23.594;2023-08-31T08:52:59;95105.56;;;29.74;34.47
23172;BME280;11754;42.664;23.594;2023-08-31T08:55:25;95103.22;;;30.19;31.98
23172;BME280;11754;42.664;23.594;2023-08-31T08:57:50;95109.88;;;29.93;32.46
23172;BME280;11754;42.664;23.594;2023-08-31T09:00:16;95110.09;;;30.30;32.23
23172;BME280;11754;42.664;23.594;2023-08-31T09:02:41;95104.44;;;30.26;32.03
23172;BME280;11754;42.664;23.594;2023-08-31T09:05:07;95104.97;;;29.39;32.97
23172;BME280;11754;42.664;23.594;2023-08-31T09:07:35;95090.03;;;30.07;32.80
23172;BME280;11754;42.664;23.594;2023-08-31T09:10:01;95092.88;;;31.03;31.39
23172;BME280;11754;42.664;23.594;2023-08-31T09:12:29;95098.25;;;32.03;30.64
23172;BME280;11754;42.664;23.594;2023-08-31T09:15:01;95092.25;;;32.55;28.80
23172;BME280;11754;42.664;23.594;2023-08-31T09:17:38;95079.91;;;31.59;28.82
23172;BME280;11754;42.664;23.594;2023-08-31T09:20:04;95085.56;;;31.63;28.92
23172;BME280;11754;42.664;23.594;2023-08-31T09:22:31;95079.72;;;31.55;29.74
23172;BME280;11754;42.664;23.594;2023-08-31T09:24:58;95085.97;;;32.46;28.67
23172;BME280;11754;42.664;23.594;2023-08-31T09:27:23;95084.66;;;31.90;28.97
23172;BME280;11754;42.664;23.594;2023-08-31T09:29:50;95085.31;;;30.86;30.66
23172;BME280;11754;42.664;23.594;2023-08-31T09:32:18;95085.88;;;33.08;27.35
23172;BME280;11754;42.664;23.594;2023-08-31T09:34:44;95069.50;;;33.78;26.28
23172;BME280;11754;42.664;23.594;2023-08-31T09:37:10;95073.81;;;35.49;24.38
23172;BME280;11754;42.664;23.594;2023-08-31T09:39:44;95070.81;;;37.24;22.75
23172;BME280;11754;42.664;23.594;2023-08-31T09:42:09;95058.78;;;37.16;21.49
23172;BME280;11754;42.664;23.594;2023-08-31T09:44:39;95062.72;;;39.93;19.13
23172;BME280;11754;42.664;23.594;2023-08-31T09:47:05;95051.00;;;39.06;19.91
23172;BME280;11754;42.664;23.594;2023-08-31T09:49:31;95049.28;;;41.29;18.52
23172;BME280;11754;42.664;23.594;2023-08-31T09:51:58;95064.69;;;42.58;16.11
23172;BME280;11754;42.664;23.594;2023-08-31T09:54:27;95053.06;;;45.43;14.87
23172;BME280;11754;42.664;23.594;2023-08-31T09:56:55;95053.44;;;46.51;13.89
23172;BME280;11754;42.664;23.594;2023-08-31T09:59:21;95045.97;;;48.91;12.04
23172;BME280;11754;42.664;23.594;2023-08-31T10:01:47;95036.84;;;50.50;11.28
23172;BME280;11754;42.664;23.594;2023-08-31T10:04:13;95027.19;;;51.91;10.00
23172;BME280;11754;42.664;23.594;2023-08-31T10:06:39;95028.63;;;50.23;10.47
23172;BME280;11754;42.664;23.594;2023-08-31T10:09:06;95039.31;;;49.28;11.34
23172;BME280;11754;42.664;23.594;2023-08-31T10:11:32;95044.09;;;51.75;10.07
23172;BME280;11754;42.664;23.594;2023-08-31T10:13:58;95025.88;;;54.33;8.84
23172;BME280;11754;42.664;23.594;2023-08-31T10:16:27;95033.38;;;56.00;7.98
23172;BME280;11754;42.664;23.594;2023-08-31T10:18:54;95035.44;;;51.40;9.19
23172;BME280;11754;42.664;23.594;2023-08-31T10:21:20;95029.94;;;52.58;8.65
23172;BME280;11754;42.664;23.594;2023-08-31T10:26:51;95026.78;;;54.70;8.11
23172;BME280;11754;42.664;23.594;2023-08-31T10:29:26;95032.94;;;55.74;6.91
23172;BME280;11754;42.664;23.594;2023-08-31T10:32:00;95032.41;;;56.03;7.18
23172;BME280;11754;42.664;23.594;2023-08-31T10:34:35;95025.22;;;54.29;7.60
23172;BME280;11754;42.664;23.594;2023-08-31T10:37:19;95023.66;;;53.84;7.71
23172;BME280;11754;42.664;23.594;2023-08-31T10:39:45;95029.03;;;51.98;8.42
23172;BME280;11754;42.664;23.594;2023-08-31T10:42:10;95024.31;;;50.71;9.25
23172;BME280;11754;42.664;23.594;2023-08-31T10:44:36;95028.47;;;47.30;11.13
23172;BME280;11754;42.664;23.594;2023-08-31T10:47:05;95034.41;;;46.39;11.46
23172;BME280;11754;42.664;23.594;2023-08-31T10:49:30;95035.91;;;49.81;10.10
23172;BME280;11754;42.664;23.594;2023-08-31T10:52:20;95028.88;;;54.17;7.77
23172;BME280;11754;42.664;23.594;2023-08-31T10:54:55;95044.53;;;55.30;7.23
23172;BME280;11754;42.664;23.594;2023-08-31T10:57:29;95041.69;;;56.12;6.96
23172;BME280;11754;42.664;23.594;2023-08-31T10:59:55;95041.06;;;51.69;8.73
23172;BME280;11754;42.664;23.594;2023-08-31T11:02:42;95031.16;;;49.38;9.72
23172;BME280;11754;42.664;23.594;2023-08-31T11:05:12;95047.84;;;47.07;11.31
23172;BME280;11754;42.664;23.594;2023-08-31T11:07:45;95024.34;;;49.78;10.05
23172;BME280;11754;42.664;23.594;2023-08-31T11:10:22;95031.06;;;53.47;8.48
23172;BME280;11754;42.664;23.594;2023-08-31T11:12:53;95021.69;;;54.97;7.53
23172;BME280;11754;42.664;23.594;2023-08-31T11:15:21;95027.50;;;54.53;7.95
23172;BME280;11754;42.664;23.594;2023-08-31T11:17:50;95029.66;;;53.64;8.01
23172;BME280;11754;42.664;23.594;2023-08-31T11:20:17;95037.31;;;55.47;6.87
23172;BME280;11754;42.664;23.594;2023-08-31T11:22:45;95029.16;;;51.65;8.25
23172;BME280;11754;42.664;23.594;2023-08-31T11:25:12;95012.25;;;50.38;9.29
23172;BME280;11754;42.664;23.594;2023-08-31T11:27:38;95017.38;;;52.38;7.99
23172;BME280;11754;42.664;23.594;2023-08-31T11:30:12;95022.03;;;53.74;7.91
23172;BME280;11754;42.664;23.594;2023-08-31T11:32:46;95020.63;;;57.13;6.37
23172;BME280;11754;42.664;23.594;2023-08-31T11:35:14;95020.38;;;57.50;6.59
23172;BME280;11754;42.664;23.594;2023-08-31T11:37:41;95025.09;;;59.07;5.82
23172;BME280;11754;42.664;23.594;2023-08-31T11:40:08;95011.59;;;60.15;5.26
23172;BME280;11754;42.664;23.594;2023-08-31T11:42:34;95000.44;;;57.59;6.03
23172;BME280;11754;42.664;23.594;2023-08-31T11:44:59;94991.28;;;58.23;5.82
23172;BME280;11754;42.664;23.594;2023-08-31T11:47:25;95010.78;;;55.45;7.13
23172;BME280;11754;42.664;23.594;2023-08-31T11:49:51;95013.09;;;56.53;6.42
23172;BME280;11754;42.664;23.594;2023-08-31T11:52:17;95008.13;;;57.83;6.08
23172;BME280;11754;42.664;23.594;2023-08-31T11:54:43;95011.09;;;60.17;5.57
23172;BME280;11754;42.664;23.594;2023-08-31T11:57:11;95014.72;;;61.29;5.16
23172;BME280;11754;42.664;23.594;2023-08-31T11:59:38;95004.19;;;61.63;4.50
23172;BME280;11754;42.664;23.594;2023-08-31T12:02:08;95002.69;;;60.65;5.31
23172;BME280;11754;42.664;23.594;2023-08-31T12:04:41;94988.06;;;59.62;5.71
23172;BME280;11754;42.664;23.594;2023-08-31T12:07:08;95010.31;;;60.48;5.45
23172;BME280;11754;42.664;23.594;2023-08-31T12:09:33;94992.22;;;59.21;5.64
23172;BME280;11754;42.664;23.594;2023-08-31T12:11:59;94991.63;;;60.09;5.42
23172;BME280;11754;42.664;23.594;2023-08-31T12:14:27;94985.22;;;60.89;5.39
23172;BME280;11754;42.664;23.594;2023-08-31T12:17:03;94996.97;;;59.76;5.29
23172;BME280;11754;42.664;23.594;2023-08-31T12:19:29;94994.41;;;59.31;5.65
23172;BME280;11754;42.664;23.594;2023-08-31T12:21:55;94994.34;;;56.55;6.62
23172;BME280;11754;42.664;23.594;2023-08-31T12:24:21;94991.69;;;57.87;6.03
23172;BME280;11754;42.664;23.594;2023-08-31T12:26:48;94987.97;;;58.40;6.05
23172;BME280;11754;42.664;23.594;2023-08-31T12:29:13;94983.00;;;58.55;5.63
23172;BME280;11754;42.664;23.594;2023-08-31T12:31:39;94984.69;;;55.68;7.15
23172;BME280;11754;42.664;23.594;2023-08-31T12:34:04;94991.16;;;56.63;7.00
23172;BME280;11754;42.664;23.594;2023-08-31T12:36:32;94969.56;;;56.74;6.82
23172;BME280;11754;42.664;23.594;2023-08-31T12:38:57;94977.06;;;57.11;6.88
23172;BME280;11754;42.664;23.594;2023-08-31T12:41:26;94972.88;;;57.74;6.92
23172;BME280;11754;42.664;23.594;2023-08-31T12:43:52;94976.19;;;57.58;6.88
23172;BME280;11754;42.664;23.594;2023-08-31T12:46:17;94966.47;;;58.89;6.23
23172;BME280;11754;42.664;23.594;2023-08-31T12:48:42;94976.16;;;59.17;5.98
23172;BME280;11754;42.664;23.594;2023-08-31T12:51:08;94984.97;;;58.49;6.29
23172;BME280;11754;42.664;23.594;2023-08-31T12:53:37;94970.91;;;58.25;6.52
23172;BME280;11754;42.664;23.594;2023-08-31T12:56:03;94966.59;;;59.00;6.17
23172;BME280;11754;42.664;23.594;2023-08-31T12:58:29;94980.06;;;59.20;5.97
23172;BME280;11754;42.664;23.594;2023-08-31T13:00:54;94975.63;;;59.86;5.35
23172;BME280;11754;42.664;23.594;2023-08-31T13:03:22;94977.22;;;59.93;5.50